Washington, DC (20082)

8:59 PM EDT on August 24, 2016 (GMT -0400)
H Street Corridor - NoMa | | Change Station

Elev 56 ft 38.90 °N, 77.00 °W | Updated 9 seconds ago

Scattered Clouds
Scattered Clouds
78.6 °F
Feels Like 81 °F
N
5.0
Wind Variable Wind from SSE
Gusts 8.0 mph

Today
High -- | Low -- °F
--% Chance of Precip.
Yesterday
High -- | Low -- °F
Precip. -- in
Pressure 30.20 in
Visibility 10.0 miles
Clouds Scattered Clouds 25000 ft
Heat Index 81 °F
Dew Point 66 °F
Humidity 66%
Rainfall 0.00 in
Snow Depth Not available.
6:30 AM 7:49 PM
Waning Gibbous, 51% visible
METAR KDCA 250052Z 17011KT 10SM SCT250 26/18 A3020 RMK AO2 SLP225 T02560183
Pressure 30.20 in
Visibility 10.0 miles
Clouds Scattered Clouds 25000 ft
Heat Index 81 °F
Dew Point 66 °F
Humidity 66%
Rainfall 0.00 in
Snow Depth Not available.
6:30 AM 7:49 PM
Waning Gibbous, 51% visible
METAR KDCA 250052Z 17011KT 10SM SCT250 26/18 A3020 RMK AO2 SLP225 T02560183

10-Day Weather Forecast

Almanac

Astronomy

Aug. 24, 2016 Rise Set
Actual Time
Civil Twilight
Nautical Twilight
Astronomical Twilight
Moon
Length of Visible Light
Length of Day
Tomorrow will be .
, % of the Moon is Illuminated

Today's Extremes

State Highs State Lows

Community

WunderPhotos

Upload Photos

1,934,748 photos uploaded!

WunderBlog® & News

Nearby

Air Quality

  Air Quality AQ Index Pollutant
Not available.

Snow Depth

Station Depth Elevation

Earthquake Activity

City Distance Mag. Time & Date
Minimum magnitude displayed is 2.5.

Coastal Water Temperatures

Place Temperature

Stations

Nearby Weather Stations

Station Location Temp. Windchill Dew Point Humidity Wind Precip. Elev Updated Type
                   

Watches & Warnings

There are currently no watches in effect.